Elderon, WI

12:59 AM CDT on August 01, 2014 (GMT -0500)
Wittenberg Wi. (KWIWITTE2) Elev 1191 ft | 44.83 °N, 89.17 °W | Change Station

Current weather conditions updated 2 seconds ago

Clear
Clear
58.6 °F
Feels Like 58.6 °F
N
0.0
Wind Variable Wind from ESE
Gusts 0.0 mph

Today is forecast to be nearly the same temperature as yesterday. Scattered thunderstorms possible.

Today
High -- | Low -- °F
--% Chance of Precip.
Yesterday
High -- | Low -- °F
Precip. -- in
5:42 AM 8:22 PM
Waxing Crescent, 24% visible
Pressure 30.03 in
Visibility 10.0 miles
Clouds Clear
Dew Point 58 °F
Humidity 99%
Rainfall 0.00 in
Snow Depth Not available.
UV 0 out of 12
Pollen 7.50 out of 12
Air Quality Not available.
Flu Activity Not available.
METAR KCWA 010535Z AUTO 26004KT 10SM CLR 16/16 A3003 RMK AO2 LTG DSNT W

More Conditions Fewer Conditions

Pressure 30.03 in
Visibility 10.0 miles
Clouds Clear
Dew Point 58 °F
Humidity 99%
Rainfall 0.00 in
Snow Depth Not available.
UV 0 out of 12
Pollen 7.50 out of 12
Air Quality Not available.
Flu Activity Not available.
METAR KCWA 010535Z AUTO 26004KT 10SM CLR 16/16 A3003 RMK AO2 LTG DSNT W

More Conditions Fewer Conditions

10-Day Weather Forecast

Almanac

Astronomy

Aug. 01, 2014 Rise Set
Actual Time 5:42 AM CDT 8:22 PM CDT
Civil Twilight 5:09 AM CDT 8:56 PM CDT
Nautical Twilight 4:27 AM CDT 9:38 PM CDT
Astronomical Twilight 3:38 AM CDT 10:26 PM CDT
Moon 11:22 AM CDT 10:50 PM CDT
Length of Visible Light 15h 46m
Length of Day
14h 39m
Tomorrow will be 2m 25s shorter.
Waxing Crescent, 24% of the Moon is Illuminated
Today
Waxing Crescent
Aug 3
First Quarter
Aug 10
Full
Aug 17
Last Quarter
Aug 25
New

Today's Extremes

State Highs State Lows

Community

WunderPhotos

Upload Photos

1,739,520 photos uploaded!

Nearby

Snow Depth

Station Depth Elevation
No new snow has been reported.

Earthquake Activity

City Distance Mag. Time & Date
No recent earthquake activity has been reported nearby.
Minimum magnitude displayed is 2.5.

Coastal Water Temperatures

Place Temperature
No Stations Reporting

Nearby Weather Stations

Station Location Temp. Dew Point Humidity Wind Precip. Elev Updated Type
Wittenberg Wi., Wittenberg, WI 58.6 °F 58 °F 99% ESE  at  0.0 mph 0.00 in / hr 1191 ft 12:59 AM CDT Rapid Fire
Corks Repair, Iola, WI 63.9 °F 64 °F 100% WSW  at  0.0 mph 0.00 in / hr 1050 ft 12:58 AM CDT Rapid Fire
Knopf's House, Weston, WI 57.2 °F 54 °F 89% ESE  at  0.0 mph - / hr 1214 ft 12:57 AM CDT Normal
WB9GBG, Iola, WI 61.9 °F 60 °F 95% South  at  0.7 mph 0.00 in / hr 1027 ft 1:58 AM EDT Normal
Hawthorn Hills Elementary School, Wausau, WI 58.4 °F 57 °F 94% WNW  at  0.0 mph 0.00 in / hr 1201 ft 12:58 AM CDT Rapid Fire
WIDOT Stevens Point - I-39 @ STH 66, Stevens Point, WI 63 °F 58 °F 85% North  at  0 mph 0.00 in / hr 1100 ft 11:17 PM CDT MADIS
6 White Pillars, Wausau, WI 60.6 °F 59 °F 95% WSW  at  0.0 mph 0.00 in / hr 1381 ft 12:58 AM CDT Normal

Show More Stations Show Fewer Stations